createdAt,value
2019-05-30T00:00:14.965Z,56.88
2019-05-30T00:02:32.036Z,56.96
2019-05-30T00:05:02.785Z,57.26
2019-05-30T00:07:31.992Z,57.99
2019-05-30T00:10:00.829Z,57.90
2019-05-30T00:12:31.339Z,57.63
2019-05-30T00:15:00.915Z,57.45
2019-05-30T00:17:31.166Z,58.14
2019-05-30T00:20:01.118Z,58.34
2019-05-30T00:22:29.788Z,57.84
2019-05-30T00:25:00.074Z,58.73
2019-05-30T00:27:28.565Z,58.49
2019-05-30T00:29:57.421Z,58.83
2019-05-30T00:32:27.956Z,58.92
2019-05-30T00:34:57.822Z,58.63
2019-05-30T00:37:26.118Z,58.37
2019-05-30T00:39:55.794Z,58.40
2019-05-30T00:42:24.949Z,58.93
2019-05-30T00:44:54.239Z,59.21
2019-05-30T00:47:23.088Z,58.58
2019-05-30T00:49:52.404Z,59.09
2019-05-30T00:52:23.315Z,59.11
2019-05-30T00:54:53.084Z,59.19
2019-05-30T00:57:22.935Z,59.26
2019-05-30T00:59:51.741Z,59.57
2019-05-30T01:02:21.290Z,59.29
2019-05-30T01:04:50.757Z,59.36
2019-05-30T01:07:20.531Z,59.42
2019-05-30T01:09:49.463Z,59.09
2019-05-30T01:12:18.375Z,59.12
2019-05-30T01:14:47.212Z,59.08
2019-05-30T01:17:16.763Z,59.47
2019-05-30T01:19:45.666Z,59.66
2019-05-30T01:22:15.549Z,59.56
2019-05-30T01:24:44.634Z,59.37
2019-05-30T01:27:14.195Z,59.75
2019-05-30T01:29:43.156Z,59.87
2019-05-30T01:32:32.522Z,60.06
2019-05-30T01:35:02.183Z,61.06
2019-05-30T01:37:30.811Z,61.38
2019-05-30T01:39:59.796Z,61.59
2019-05-30T01:42:29.112Z,62.14
2019-05-30T01:44:58.127Z,62.39
2019-05-30T01:47:26.949Z,61.95
2019-05-30T01:49:56.726Z,62.35
2019-05-30T01:52:26.186Z,62.08
2019-05-30T01:54:58.413Z,62.08
2019-05-30T01:57:26.467Z,61.96
2019-05-30T01:59:56.493Z,62.17
2019-05-30T02:02:25.296Z,62.26
2019-05-30T02:04:54.754Z,62.32
2019-05-30T02:07:24.548Z,61.84
2019-05-30T02:09:53.401Z,61.54
2019-05-30T02:12:22.557Z,61.51
2019-05-30T02:14:52.779Z,61.65
2019-05-30T02:17:22.601Z,62.04
2019-05-30T02:19:52.320Z,61.54
2019-05-30T02:22:22.369Z,62.02
2019-05-30T02:24:51.949Z,61.54
2019-05-30T02:27:21.662Z,61.85
2019-05-30T02:29:51.147Z,61.74
2019-05-30T02:32:20.107Z,61.93
2019-05-30T02:34:50.967Z,62.09
2019-05-30T02:37:20.088Z,61.49
2019-05-30T02:39:49.618Z,61.93
2019-05-30T02:42:19.132Z,61.41
2019-05-30T02:44:48.634Z,61.39
2019-05-30T02:47:21.982Z,62.44
2019-05-30T02:49:47.035Z,61.41
2019-05-30T02:52:16.607Z,61.34
2019-05-30T02:54:46.533Z,61.73
2019-05-30T02:57:15.611Z,61.93
2019-05-30T02:59:44.407Z,61.50
2019-05-30T03:02:17.333Z,61.87
2019-05-30T03:04:45.118Z,62.24
2019-05-30T03:07:17.435Z,62.02
2019-05-30T03:09:47.520Z,62.23
2019-05-30T03:12:16.310Z,62.85
2019-05-30T03:14:46.221Z,62.83
2019-05-30T03:17:15.093Z,63.20
2019-05-30T03:19:45.621Z,62.71
2019-05-30T03:22:15.714Z,63.46
2019-05-30T03:24:45.510Z,63.66
2019-05-30T03:27:16.872Z,63.73
2019-05-30T03:29:45.784Z,63.78
2019-05-30T03:32:59.122Z,63.57
2019-05-30T03:34:43.425Z,64.57
2019-05-30T03:37:23.197Z,64.31
2019-05-30T03:39:44.418Z,65.19
2019-05-30T03:42:15.942Z,65.47
2019-05-30T03:44:43.967Z,65.74
2019-05-30T03:47:13.786Z,65.81
2019-05-30T03:49:43.306Z,65.74
2019-05-30T03:52:16.770Z,66.29
2019-05-30T03:54:42.794Z,66.84
2019-05-30T03:57:17.185Z,67.17
2019-05-30T04:00:02.991Z,66.82
2019-05-30T04:02:56.574Z,67.21
2019-05-30T04:05:14.206Z,67.37
2019-05-30T04:07:44.872Z,68.33
2019-05-30T04:10:16.670Z,67.69
2019-05-30T04:12:57.942Z,67.83
2019-05-30T04:15:31.315Z,68.70
2019-05-30T04:18:00.112Z,69.59
2019-05-30T04:20:28.920Z,70.01
2019-05-30T04:22:58.593Z,71.64
2019-05-30T04:25:28.124Z,71.56
2019-05-30T04:27:58.552Z,72.36
2019-05-30T04:30:27.389Z,72.72
2019-05-30T04:33:16.088Z,73.40
2019-05-30T04:35:26.436Z,74.15
2019-05-30T04:37:55.338Z,74.73
2019-05-30T04:40:24.657Z,75.01
2019-05-30T04:42:55.217Z,75.18
2019-05-30T04:45:28.057Z,75.79
2019-05-30T04:47:54.111Z,75.36
2019-05-30T04:50:23.068Z,76.16
2019-05-30T04:52:55.347Z,76.42
2019-05-30T04:55:24.206Z,76.29
2019-05-30T04:57:53.726Z,76.32
2019-05-30T05:00:23.244Z,76.09
2019-05-30T05:02:53.805Z,76.42
2019-05-30T05:05:26.708Z,76.20
2019-05-30T05:07:53.251Z,76.35
2019-05-30T05:10:23.265Z,76.91
2019-05-30T05:12:52.439Z,77.34
2019-05-30T05:15:22.800Z,77.63
2019-05-30T05:17:50.568Z,77.80
2019-05-30T05:20:21.417Z,77.79
2019-05-30T05:22:50.550Z,78.36
2019-05-30T05:25:20.443Z,78.31
2019-05-30T05:27:51.575Z,78.19
2019-05-30T05:30:22.432Z,78.31
2019-05-30T05:32:50.823Z,78.14
2019-05-30T05:35:20.778Z,78.40
2019-05-30T05:37:49.447Z,78.51
2019-05-30T05:40:18.328Z,78.66
2019-05-30T05:42:47.580Z,79.19
2019-05-30T05:45:16.534Z,78.94
2019-05-30T05:47:45.383Z,78.87
2019-05-30T05:50:16.570Z,78.94
2019-05-30T05:52:44.731Z,79.06
2019-05-30T05:55:16.599Z,79.35
2019-05-30T05:57:45.997Z,78.62
2019-05-30T06:00:14.856Z,78.68
2019-05-30T06:02:43.671Z,79.41
2019-05-30T06:05:13.937Z,79.27
2019-05-30T06:07:43.420Z,79.34
2019-05-30T06:10:12.544Z,79.62
2019-05-30T06:12:41.527Z,79.30
2019-05-30T06:15:11.373Z,78.88
2019-05-30T06:17:46.631Z,79.28
2019-05-30T06:20:15.480Z,78.86
2019-05-30T06:22:44.958Z,79.07
2019-05-30T06:25:18.918Z,79.04
2019-05-30T06:27:46.498Z,79.24
2019-05-30T06:30:16.222Z,78.95
2019-05-30T06:32:46.879Z,78.41
2019-05-30T06:35:17.041Z,78.95
2019-05-30T06:37:47.794Z,79.01
2019-05-30T06:40:17.376Z,78.48
2019-05-30T06:42:46.956Z,78.51
2019-05-30T06:45:16.001Z,78.89
2019-05-30T06:47:46.163Z,78.76
2019-05-30T06:50:15.091Z,79.23
2019-05-30T06:52:43.934Z,79.31
2019-05-30T06:55:12.976Z,79.47
2019-05-30T06:57:41.821Z,78.98
2019-05-30T07:00:12.159Z,78.87
2019-05-30T07:02:42.153Z,79.02
2019-05-30T07:05:11.727Z,79.37
2019-05-30T07:07:39.873Z,79.04
2019-05-30T07:10:08.800Z,78.82
2019-05-30T07:12:37.710Z,78.92
2019-05-30T07:15:09.080Z,79.46
2019-05-30T07:17:37.940Z,80.07
2019-05-30T07:20:07.495Z,79.61
2019-05-30T07:22:36.911Z,79.33
2019-05-30T07:25:08.104Z,80.25
2019-05-30T07:27:37.885Z,79.24
2019-05-30T07:30:06.881Z,79.58
2019-05-30T07:32:35.795Z,79.61
2019-05-30T07:35:07.235Z,79.11
2019-05-30T07:37:34.397Z,79.48
2019-05-30T07:40:03.442Z,79.20
2019-05-30T07:42:32.907Z,80.00
2019-05-30T07:45:01.796Z,79.63
2019-05-30T07:47:32.159Z,79.75
2019-05-30T07:50:01.194Z,79.27
2019-05-30T07:52:30.639Z,78.94
2019-05-30T07:54:58.889Z,79.27
2019-05-30T07:57:28.102Z,79.19
2019-05-30T07:59:57.926Z,78.96
2019-05-30T08:02:27.517Z,78.59
2019-05-30T08:04:55.718Z,78.61
2019-05-30T08:07:26.465Z,78.71
2019-05-30T08:09:54.881Z,77.93
2019-05-30T08:12:24.912Z,77.43
2019-05-30T08:14:53.884Z,78.41
2019-05-30T08:17:23.083Z,78.18
2019-05-30T08:19:51.976Z,78.42
2019-05-30T08:22:20.963Z,78.37
2019-05-30T08:24:49.932Z,78.28
2019-05-30T08:27:18.775Z,78.14
2019-05-30T08:29:47.731Z,78.13
2019-05-30T08:32:16.624Z,78.38
2019-05-30T08:34:45.464Z,78.16
2019-05-30T08:37:14.379Z,77.66
2019-05-30T08:39:43.942Z,77.66
2019-05-30T08:42:12.774Z,76.22
2019-05-30T08:44:42.638Z,76.86
2019-05-30T08:47:11.447Z,76.91
2019-05-30T08:49:40.463Z,76.06
2019-05-30T08:52:09.193Z,75.30
2019-05-30T08:54:38.534Z,74.40
2019-05-30T08:57:07.004Z,74.16
2019-05-30T08:59:36.637Z,73.85
2019-05-30T09:02:07.118Z,73.83
2019-05-30T09:04:35.913Z,73.92
2019-05-30T09:07:04.881Z,74.30
2019-05-30T09:09:33.680Z,73.93
2019-05-30T09:12:05.514Z,73.35
2019-05-30T09:14:34.348Z,73.94
2019-05-30T09:17:03.946Z,73.76
2019-05-30T09:19:32.775Z,73.86
2019-05-30T09:22:01.664Z,73.79
2019-05-30T09:24:30.480Z,73.35
2019-05-30T09:26:59.369Z,73.78
2019-05-30T09:29:28.262Z,73.83
2019-05-30T09:31:57.206Z,73.85
2019-05-30T09:34:26.114Z,73.43
2019-05-30T09:36:54.977Z,73.75
2019-05-30T09:39:23.822Z,73.04
2019-05-30T09:41:52.788Z,73.70
2019-05-30T09:44:21.913Z,73.75
2019-05-30T09:46:51.550Z,73.33
2019-05-30T09:49:20.408Z,73.16
2019-05-30T09:51:51.101Z,73.17
2019-05-30T09:54:19.160Z,73.02
2019-05-30T09:56:48.561Z,73.40
2019-05-30T09:59:16.948Z,72.52
2019-05-30T10:01:46.093Z,72.01
2019-05-30T10:04:15.473Z,71.73
2019-05-30T10:06:44.675Z,71.29
2019-05-30T10:09:13.339Z,71.90
2019-05-30T10:11:42.797Z,71.21
2019-05-30T10:14:11.361Z,70.65
2019-05-30T10:16:40.275Z,70.55
2019-05-30T10:19:09.155Z,70.35
2019-05-30T10:21:38.169Z,70.26
2019-05-30T10:24:07.119Z,70.14
2019-05-30T10:26:36.023Z,69.63
2019-05-30T10:29:04.912Z,69.83
2019-05-30T10:31:33.808Z,69.60
2019-05-30T10:34:03.289Z,68.96
2019-05-30T10:36:43.778Z,68.70
2019-05-30T10:39:02.605Z,68.00
2019-05-30T10:41:31.670Z,68.75
2019-05-30T10:44:00.568Z,68.66
2019-05-30T10:46:29.400Z,68.90
2019-05-30T10:48:58.286Z,67.97
2019-05-30T10:51:28.467Z,67.95
2019-05-30T10:53:57.797Z,67.81
2019-05-30T10:56:26.657Z,68.44
2019-05-30T10:58:55.511Z,68.07
2019-05-30T11:01:24.452Z,68.94
2019-05-30T11:03:53.287Z,68.85
2019-05-30T11:06:30.226Z,69.51
2019-05-30T11:08:59.647Z,68.93
2019-05-30T11:11:29.557Z,67.97
2019-05-30T11:13:59.362Z,68.10
2019-05-30T11:16:28.215Z,67.96
2019-05-30T11:18:57.927Z,67.57
2019-05-30T11:21:25.831Z,68.26
2019-05-30T11:23:56.635Z,67.75
2019-05-30T11:26:24.657Z,67.93
2019-05-30T11:28:54.696Z,67.85
2019-05-30T11:31:22.945Z,67.18
2019-05-30T11:33:52.826Z,67.95
2019-05-30T11:36:20.647Z,67.47
2019-05-30T11:38:52.011Z,66.48
2019-05-30T11:41:19.428Z,65.17
2019-05-30T11:43:49.370Z,65.00
2019-05-30T11:46:18.606Z,64.82
2019-05-30T11:48:47.495Z,65.15
2019-05-30T11:51:16.471Z,65.60
2019-05-30T11:53:45.833Z,65.55
2019-05-30T11:56:15.246Z,65.66
2019-05-30T11:58:44.333Z,65.74
2019-05-30T12:01:13.280Z,66.03
2019-05-30T12:03:43.087Z,66.29
2019-05-30T12:06:12.159Z,66.43
2019-05-30T12:08:41.135Z,65.99
2019-05-30T12:11:10.017Z,65.82
2019-05-30T12:13:38.913Z,65.83
2019-05-30T12:16:07.828Z,66.27
2019-05-30T12:18:36.722Z,66.62
2019-05-30T12:21:05.585Z,66.09
2019-05-30T12:23:34.983Z,66.62
2019-05-30T12:26:04.702Z,66.31
2019-05-30T12:28:33.884Z,65.95
2019-05-30T12:31:06.295Z,65.79
2019-05-30T12:33:31.605Z,65.25
2019-05-30T12:36:00.701Z,65.19
2019-05-30T12:38:29.473Z,64.91
2019-05-30T12:40:58.968Z,64.20
2019-05-30T12:43:28.472Z,62.77
2019-05-30T12:45:59.169Z,62.80
2019-05-30T12:48:28.047Z,62.64
2019-05-30T12:50:57.205Z,62.14
2019-05-30T12:53:25.828Z,62.31
2019-05-30T12:55:54.701Z,62.30
2019-05-30T12:58:23.528Z,61.57
2019-05-30T13:00:52.441Z,61.14
2019-05-30T13:03:22.301Z,61.01
2019-05-30T13:05:52.404Z,60.14
2019-05-30T13:08:22.173Z,59.95
2019-05-30T13:10:50.132Z,59.01
2019-05-30T13:13:20.369Z,57.59
2019-05-30T13:15:50.143Z,57.13
2019-05-30T13:18:19.060Z,57.50
2019-05-30T13:20:49.735Z,54.80
2019-05-30T13:23:18.606Z,54.87
2019-05-30T13:25:48.159Z,54.26
2019-05-30T13:28:18.071Z,54.29
2019-05-30T13:30:46.915Z,54.36
2019-05-30T13:33:15.830Z,53.32
2019-05-30T13:35:44.819Z,53.85
2019-05-30T13:38:26.106Z,53.12
2019-05-30T13:40:45.010Z,51.48
2019-05-30T13:43:14.442Z,52.26
2019-05-30T13:45:43.248Z,52.68
2019-05-30T13:48:14.566Z,52.00
2019-05-30T13:50:45.369Z,52.75
2019-05-30T13:53:14.320Z,52.64
2019-05-30T13:55:43.532Z,52.55
2019-05-30T13:58:12.443Z,52.92
2019-05-30T14:00:41.785Z,52.89
2019-05-30T14:03:10.764Z,53.07
2019-05-30T14:05:40.300Z,52.34
2019-05-30T14:08:13.785Z,52.50
2019-05-30T14:10:38.479Z,52.37
2019-05-30T14:13:07.439Z,52.17
2019-05-30T14:15:36.255Z,51.82
2019-05-30T14:18:05.166Z,51.74
2019-05-30T14:20:34.054Z,51.33
2019-05-30T14:23:03.276Z,51.45
2019-05-30T14:25:31.791Z,51.42
2019-05-30T14:28:01.519Z,51.62
2019-05-30T14:30:30.218Z,51.96
2019-05-30T14:32:59.192Z,51.55
2019-05-30T14:35:28.309Z,51.40
2019-05-30T14:37:57.176Z,50.35
2019-05-30T14:40:26.020Z,51.32
2019-05-30T14:42:54.955Z,50.36
2019-05-30T14:45:23.796Z,50.44
2019-05-30T14:47:52.669Z,50.93
2019-05-30T14:50:22.301Z,49.83
2019-05-30T14:52:52.239Z,49.08
2019-05-30T14:55:21.050Z,49.40
2019-05-30T14:57:50.475Z,49.14
2019-05-30T15:00:19.317Z,49.31
2019-05-30T15:02:52.181Z,48.63
2019-05-30T15:05:21.075Z,49.40
2019-05-30T15:07:50.184Z,49.22
2019-05-30T15:10:19.979Z,48.95
2019-05-30T15:12:49.696Z,48.53
2019-05-30T15:15:21.641Z,49.86
2019-05-30T15:17:51.386Z,50.09
2019-05-30T15:20:20.292Z,48.73
2019-05-30T15:22:51.044Z,49.70
2019-05-30T15:25:19.878Z,49.74
2019-05-30T15:27:48.750Z,48.94
2019-05-30T15:30:18.785Z,48.05
2019-05-30T15:32:47.589Z,48.02
2019-05-30T15:35:21.044Z,48.60
2019-05-30T15:37:49.940Z,49.07
2019-05-30T15:40:18.767Z,48.86
2019-05-30T15:42:47.683Z,48.20
2019-05-30T15:45:16.502Z,48.54
2019-05-30T15:47:45.372Z,49.32
2019-05-30T15:50:15.329Z,49.37
2019-05-30T15:52:43.718Z,49.47
2019-05-30T15:55:13.245Z,49.13
2019-05-30T15:57:42.505Z,49.11
2019-05-30T16:00:12.060Z,47.88
2019-05-30T16:02:41.120Z,47.77
2019-05-30T16:05:10.726Z,48.13
2019-05-30T16:07:39.703Z,48.51
2019-05-30T16:10:08.545Z,48.47
2019-05-30T16:12:37.412Z,48.95
2019-05-30T16:15:06.488Z,49.05
2019-05-30T16:17:38.237Z,49.47
2019-05-30T16:20:07.629Z,49.91
2019-05-30T16:22:38.119Z,49.39
2019-05-30T16:25:06.968Z,48.88
2019-05-30T16:27:35.857Z,49.52
2019-05-30T16:30:06.563Z,49.65
2019-05-30T16:32:35.369Z,49.30
2019-05-30T16:35:04.488Z,49.60
2019-05-30T16:37:33.441Z,49.40
2019-05-30T16:40:06.281Z,49.94
2019-05-30T16:42:31.767Z,50.73
2019-05-30T16:45:00.828Z,50.31
2019-05-30T16:47:31.864Z,50.84
2019-05-30T16:50:00.853Z,51.31
2019-05-30T16:52:29.695Z,52.02
2019-05-30T16:54:58.655Z,51.63
2019-05-30T16:57:27.531Z,51.38
2019-05-30T16:59:56.452Z,51.82
2019-05-30T17:02:26.996Z,52.20
2019-05-30T17:04:55.317Z,52.07
2019-05-30T17:07:24.144Z,52.55
2019-05-30T17:09:53.021Z,52.51
2019-05-30T17:12:22.121Z,51.83
2019-05-30T17:14:51.642Z,52.05
2019-05-30T17:17:22.044Z,51.69
2019-05-30T17:19:50.967Z,51.47
2019-05-30T17:22:22.771Z,52.26
2019-05-30T17:24:50.768Z,52.66
2019-05-30T17:27:19.760Z,51.90
2019-05-30T17:29:48.971Z,52.59
2019-05-30T17:32:19.706Z,52.48
2019-05-30T17:34:48.205Z,51.94
2019-05-30T17:37:18.067Z,52.50
2019-05-30T17:39:45.907Z,52.20
2019-05-30T17:42:14.867Z,52.39
2019-05-30T17:44:44.709Z,53.00
2019-05-30T17:47:13.591Z,52.49
2019-05-30T17:49:48.315Z,53.12
2019-05-30T17:52:17.140Z,53.16
2019-05-30T17:54:45.958Z,52.73
2019-05-30T17:57:15.009Z,53.53
2019-05-30T17:59:44.226Z,54.05
2019-05-30T18:02:20.313Z,53.47
2019-05-30T18:04:48.994Z,53.99
2019-05-30T18:07:17.843Z,53.51
2019-05-30T18:09:46.674Z,53.19
2019-05-30T18:12:15.553Z,53.36
2019-05-30T18:14:44.609Z,53.13
2019-05-30T18:17:14.232Z,52.89
2019-05-30T18:19:43.044Z,53.19
2019-05-30T18:22:11.924Z,53.55
2019-05-30T18:24:41.252Z,53.71
2019-05-30T18:27:10.203Z,53.79
2019-05-30T18:29:40.467Z,54.00
2019-05-30T18:32:09.368Z,54.14
2019-05-30T18:34:38.356Z,54.36
2019-05-30T18:37:07.220Z,54.66
2019-05-30T18:39:37.103Z,55.22
2019-05-30T18:42:05.952Z,55.01
2019-05-30T18:44:35.407Z,55.38
2019-05-30T18:47:04.364Z,55.73
2019-05-30T18:49:34.098Z,55.28
2019-05-30T18:52:03.521Z,55.46
2019-05-30T18:54:32.941Z,56.12
2019-05-30T18:57:01.552Z,56.31
2019-05-30T18:59:33.159Z,57.10
2019-05-30T19:02:01.215Z,56.24
2019-05-30T19:04:31.626Z,56.84
2019-05-30T19:07:00.082Z,57.83
2019-05-30T19:09:29.368Z,57.03
2019-05-30T19:11:57.821Z,57.03
2019-05-30T19:14:29.729Z,57.39
2019-05-30T19:16:55.561Z,58.03
2019-05-30T19:19:25.877Z,58.04
2019-05-30T19:21:54.969Z,57.94
2019-05-30T19:24:23.776Z,58.48
2019-05-30T19:26:52.627Z,58.19
2019-05-30T19:29:22.600Z,58.87
2019-05-30T19:31:52.097Z,58.64
2019-05-30T19:34:21.051Z,58.46
2019-05-30T19:36:54.691Z,59.27
2019-05-30T19:39:24.160Z,59.55
2019-05-30T19:41:57.396Z,59.46
2019-05-30T19:44:23.401Z,59.77
2019-05-30T19:46:53.179Z,59.68
2019-05-30T19:49:21.996Z,60.26
2019-05-30T19:51:51.740Z,60.32
2019-05-30T19:54:20.840Z,60.12
2019-05-30T19:56:50.970Z,59.65
2019-05-30T19:59:19.831Z,60.81
2019-05-30T20:01:48.933Z,60.37
2019-05-30T20:04:18.739Z,60.56
2019-05-30T20:06:47.602Z,61.00
2019-05-30T20:09:16.726Z,61.19
2019-05-30T20:12:01.844Z,61.52
2019-05-30T20:14:14.607Z,61.08
2019-05-30T20:16:43.438Z,60.75
2019-05-30T20:19:13.431Z,61.17
2019-05-30T20:21:42.207Z,61.74
2019-05-30T20:24:14.289Z,61.75
2019-05-30T20:26:43.173Z,61.04
2019-05-30T20:29:12.039Z,62.02
2019-05-30T20:31:43.499Z,62.07
2019-05-30T20:34:11.648Z,62.20
2019-05-30T20:36:40.868Z,61.48
2019-05-30T20:39:10.604Z,61.68
2019-05-30T20:41:43.154Z,61.65
2019-05-30T20:44:10.705Z,62.17
2019-05-30T20:46:41.157Z,62.07
2019-05-30T20:49:09.965Z,62.31
2019-05-30T20:51:41.276Z,62.82
2019-05-30T20:54:09.704Z,62.67
2019-05-30T20:56:39.461Z,63.13
2019-05-30T20:59:10.486Z,63.30
2019-05-30T21:01:39.651Z,63.23
2019-05-30T21:04:09.293Z,63.03
2019-05-30T21:06:41.536Z,62.77
2019-05-30T21:09:27.987Z,62.59
2019-05-30T21:11:42.180Z,62.66
2019-05-30T21:14:12.752Z,63.19
2019-05-30T21:16:42.084Z,63.08
2019-05-30T21:19:11.878Z,63.58
2019-05-30T21:21:42.554Z,63.25
2019-05-30T21:24:11.344Z,63.83
2019-05-30T21:26:42.796Z,63.63
2019-05-30T21:29:15.563Z,63.20
2019-05-30T21:31:51.389Z,63.79
2019-05-30T21:34:20.304Z,63.33
2019-05-30T21:36:49.149Z,63.80
2019-05-30T21:39:19.114Z,63.11
2019-05-30T21:41:48.532Z,63.71
2019-05-30T21:44:17.501Z,63.47
2019-05-30T21:46:48.849Z,63.31
2019-05-30T21:49:17.309Z,63.99
2019-05-30T21:51:47.544Z,63.51
2019-05-30T21:54:16.154Z,63.91
2019-05-30T21:56:45.986Z,63.83
2019-05-30T21:59:14.564Z,63.34
2019-05-30T22:01:44.850Z,63.75
2019-05-30T22:04:13.981Z,64.09
2019-05-30T22:06:44.982Z,63.73
2019-05-30T22:09:14.976Z,63.78
2019-05-30T22:11:43.796Z,63.65
2019-05-30T22:14:15.069Z,64.14
2019-05-30T22:16:45.802Z,64.64
2019-05-30T22:19:17.023Z,64.14
2019-05-30T22:21:46.158Z,63.93
2019-05-30T22:24:16.482Z,64.08
2019-05-30T22:26:48.456Z,64.19
2019-05-30T22:29:16.544Z,64.90
2019-05-30T22:31:46.505Z,64.37
2019-05-30T22:34:14.942Z,64.49
2019-05-30T22:36:45.024Z,64.45
2019-05-30T22:39:15.140Z,64.41
2019-05-30T22:41:45.846Z,64.41
2019-05-30T22:44:18.003Z,63.68
2019-05-30T22:46:48.140Z,64.15
2019-05-30T22:49:17.608Z,64.02
2019-05-30T22:51:49.143Z,63.56
2019-05-30T22:54:19.955Z,63.78
2019-05-30T22:56:49.375Z,63.71
2019-05-30T22:59:17.999Z,63.48
2019-05-30T23:01:51.944Z,62.85
2019-05-30T23:04:23.736Z,62.57
2019-05-30T23:06:52.859Z,62.82
2019-05-30T23:09:23.792Z,63.27
2019-05-30T23:11:53.775Z,63.36
2019-05-30T23:14:21.486Z,62.80
2019-05-30T23:16:52.326Z,62.50
2019-05-30T23:19:20.736Z,62.53
2019-05-30T23:21:57.278Z,62.26
2019-05-30T23:24:25.137Z,62.81
2019-05-30T23:26:54.042Z,62.84
2019-05-30T23:29:24.102Z,62.33
2019-05-30T23:31:54.031Z,62.27
2019-05-30T23:34:22.881Z,62.48
2019-05-30T23:36:52.429Z,62.33
2019-05-30T23:39:20.520Z,62.49
2019-05-30T23:41:51.317Z,62.79
2019-05-30T23:44:20.870Z,62.53
2019-05-30T23:46:51.506Z,62.56
2019-05-30T23:49:20.327Z,62.69
2019-05-30T23:51:49.923Z,62.92
2019-05-30T23:54:18.485Z,63.10
2019-05-30T23:56:47.306Z,62.92
2019-05-30T23:59:20.588Z,63.20
